sensor_id;sensor_type;location;lat;lon;timestamp;pressure;altitude;pressure_sealevel;temperature;humidity
48882;BME280;57063;51.406;-2.402;2023-07-02T00:00:34;100088.16;;;12.12;92.76
48882;BME280;57063;51.406;-2.402;2023-07-02T00:03:01;100078.94;;;12.20;92.47
48882;BME280;57063;51.406;-2.402;2023-07-02T00:05:27;100081.78;;;12.05;92.87
48882;BME280;57063;51.406;-2.402;2023-07-02T00:07:53;100083.53;;;12.04;92.62
48882;BME280;57063;51.406;-2.402;2023-07-02T00:10:18;100079.47;;;12.13;90.86
48882;BME280;57063;51.406;-2.402;2023-07-02T00:12:43;100076.38;;;12.08;91.85
48882;BME280;57063;51.406;-2.402;2023-07-02T00:15:09;100083.31;;;11.94;93.04
48882;BME280;57063;51.406;-2.402;2023-07-02T00:17:35;100078.28;;;11.93;94.70
48882;BME280;57063;51.406;-2.402;2023-07-02T00:20:07;100077.84;;;11.86;96.89
48882;BME280;57063;51.406;-2.402;2023-07-02T00:22:39;100076.00;;;11.75;98.00
48882;BME280;57063;51.406;-2.402;2023-07-02T00:25:07;100081.97;;;11.76;97.89
48882;BME280;57063;51.406;-2.402;2023-07-02T00:27:33;100082.38;;;11.70;97.53
48882;BME280;57063;51.406;-2.402;2023-07-02T00:29:58;100076.59;;;11.66;97.71
48882;BME280;57063;51.406;-2.402;2023-07-02T00:32:24;100078.78;;;11.60;96.55
48882;BME280;57063;51.406;-2.402;2023-07-02T00:34:49;100080.13;;;11.52;98.28
48882;BME280;57063;51.406;-2.402;2023-07-02T00:37:15;100077.63;;;11.51;98.11
48882;BME280;57063;51.406;-2.402;2023-07-02T00:39:40;100082.81;;;11.64;96.52
48882;BME280;57063;51.406;-2.402;2023-07-02T00:42:06;100089.03;;;11.61;94.20
48882;BME280;57063;51.406;-2.402;2023-07-02T00:44:33;100093.56;;;11.45;94.99
48882;BME280;57063;51.406;-2.402;2023-07-02T00:46:59;100090.47;;;11.52;96.27
48882;BME280;57063;51.406;-2.402;2023-07-02T00:49:24;100082.41;;;11.44;96.04
48882;BME280;57063;51.406;-2.402;2023-07-02T00:51:50;100093.97;;;11.51;95.02
48882;BME280;57063;51.406;-2.402;2023-07-02T00:54:16;100092.53;;;11.47;96.22
48882;BME280;57063;51.406;-2.402;2023-07-02T00:56:41;100093.53;;;11.32;97.46
48882;BME280;57063;51.406;-2.402;2023-07-02T00:59:06;100096.75;;;11.48;96.73
48882;BME280;57063;51.406;-2.402;2023-07-02T01:01:32;100095.94;;;11.48;94.21
48882;BME280;57063;51.406;-2.402;2023-07-02T01:04:04;100097.38;;;11.39;96.58
48882;BME280;57063;51.406;-2.402;2023-07-02T01:06:35;100101.69;;;11.39;97.13
48882;BME280;57063;51.406;-2.402;2023-07-02T01:09:03;100099.44;;;11.34;98.52
48882;BME280;57063;51.406;-2.402;2023-07-02T01:11:31;100097.25;;;11.28;98.62
48882;BME280;57063;51.406;-2.402;2023-07-02T01:14:02;100106.13;;;11.24;99.65
48882;BME280;57063;51.406;-2.402;2023-07-02T01:16:29;100095.78;;;11.24;99.82
48882;BME280;57063;51.406;-2.402;2023-07-02T01:18:56;100107.44;;;11.17;99.56
48882;BME280;57063;51.406;-2.402;2023-07-02T01:21:23;100111.34;;;11.09;100.00
48882;BME280;57063;51.406;-2.402;2023-07-02T01:23:49;100115.81;;;11.07;100.00
48882;BME280;57063;51.406;-2.402;2023-07-02T01:26:15;100107.53;;;11.02;100.00
48882;BME280;57063;51.406;-2.402;2023-07-02T01:28:41;100115.09;;;11.05;100.00
48882;BME280;57063;51.406;-2.402;2023-07-02T01:31:06;100115.69;;;11.09;100.00
48882;BME280;57063;51.406;-2.402;2023-07-02T01:33:32;100116.56;;;11.22;98.87
48882;BME280;57063;51.406;-2.402;2023-07-02T01:35:57;100121.97;;;11.32;96.36
48882;BME280;57063;51.406;-2.402;2023-07-02T01:38:23;100118.13;;;11.25;95.90
48882;BME280;57063;51.406;-2.402;2023-07-02T01:40:49;100111.19;;;11.12;97.96
48882;BME280;57063;51.406;-2.402;2023-07-02T01:43:14;100115.53;;;11.12;99.64
48882;BME280;57063;51.406;-2.402;2023-07-02T01:45:41;100120.78;;;11.10;100.00
48882;BME280;57063;51.406;-2.402;2023-07-02T01:48:07;100112.88;;;10.99;100.00
48882;BME280;57063;51.406;-2.402;2023-07-02T01:50:32;100123.41;;;10.96;100.00
48882;BME280;57063;51.406;-2.402;2023-07-02T01:52:58;100120.31;;;10.91;100.00
48882;BME280;57063;51.406;-2.402;2023-07-02T01:55:23;100126.25;;;10.79;100.00
48882;BME280;57063;51.406;-2.402;2023-07-02T01:57:48;100119.06;;;10.69;100.00
48882;BME280;57063;51.406;-2.402;2023-07-02T02:00:14;100127.34;;;10.75;100.00
48882;BME280;57063;51.406;-2.402;2023-07-02T02:02:41;100127.22;;;10.63;100.00
48882;BME280;57063;51.406;-2.402;2023-07-02T02:05:07;100113.84;;;10.71;100.00
48882;BME280;57063;51.406;-2.402;2023-07-02T02:07:34;100122.78;;;10.65;100.00
48882;BME280;57063;51.406;-2.402;2023-07-02T02:10:01;100120.69;;;10.85;100.00
48882;BME280;57063;51.406;-2.402;2023-07-02T02:12:26;100123.13;;;10.74;99.45
48882;BME280;57063;51.406;-2.402;2023-07-02T02:14:53;100118.53;;;10.64;100.00
48882;BME280;57063;51.406;-2.402;2023-07-02T02:17:19;100127.22;;;10.63;100.00
48882;BME280;57063;51.406;-2.402;2023-07-02T02:19:44;100121.41;;;10.60;100.00
48882;BME280;57063;51.406;-2.402;2023-07-02T02:22:10;100124.00;;;10.60;100.00
48882;BME280;57063;51.406;-2.402;2023-07-02T02:24:35;100120.25;;;10.51;100.00
48882;BME280;57063;51.406;-2.402;2023-07-02T02:27:00;100119.50;;;10.49;100.00
48882;BME280;57063;51.406;-2.402;2023-07-02T02:29:26;100123.13;;;10.32;100.00
48882;BME280;57063;51.406;-2.402;2023-07-02T02:31:51;100122.47;;;10.28;100.00
48882;BME280;57063;51.406;-2.402;2023-07-02T02:34:17;100128.47;;;10.29;100.00
48882;BME280;57063;51.406;-2.402;2023-07-02T02:36:42;100131.66;;;10.18;100.00
48882;BME280;57063;51.406;-2.402;2023-07-02T02:39:07;100128.81;;;10.23;100.00
48882;BME280;57063;51.406;-2.402;2023-07-02T02:41:33;100124.47;;;10.23;100.00
48882;BME280;57063;51.406;-2.402;2023-07-02T02:43:58;100128.63;;;10.40;100.00
48882;BME280;57063;51.406;-2.402;2023-07-02T02:46:23;100130.31;;;10.41;100.00
48882;BME280;57063;51.406;-2.402;2023-07-02T02:48:49;100132.13;;;10.25;100.00
48882;BME280;57063;51.406;-2.402;2023-07-02T02:51:15;100127.88;;;10.24;100.00
48882;BME280;57063;51.406;-2.402;2023-07-02T02:53:41;100131.88;;;10.15;100.00
48882;BME280;57063;51.406;-2.402;2023-07-02T02:56:06;100123.84;;;10.20;100.00
48882;BME280;57063;51.406;-2.402;2023-07-02T02:58:31;100134.16;;;10.20;100.00
48882;BME280;57063;51.406;-2.402;2023-07-02T03:00:57;100124.22;;;10.14;100.00
48882;BME280;57063;51.406;-2.402;2023-07-02T03:03:22;100134.53;;;10.14;100.00
48882;BME280;57063;51.406;-2.402;2023-07-02T03:05:50;100132.97;;;10.11;100.00
48882;BME280;57063;51.406;-2.402;2023-07-02T03:08:15;100140.69;;;10.11;100.00
48882;BME280;57063;51.406;-2.402;2023-07-02T03:10:41;100138.13;;;10.11;100.00
48882;BME280;57063;51.406;-2.402;2023-07-02T03:13:07;100134.72;;;10.11;100.00
48882;BME280;57063;51.406;-2.402;2023-07-02T03:15:32;100133.06;;;10.10;99.53
48882;BME280;57063;51.406;-2.402;2023-07-02T03:17:57;100136.28;;;10.13;98.99
48882;BME280;57063;51.406;-2.402;2023-07-02T03:20:23;100139.59;;;10.01;100.00
48882;BME280;57063;51.406;-2.402;2023-07-02T03:22:49;100140.41;;;10.01;100.00
48882;BME280;57063;51.406;-2.402;2023-07-02T03:25:14;100141.06;;;9.91;100.00
48882;BME280;57063;51.406;-2.402;2023-07-02T03:27:40;100137.47;;;9.93;100.00
48882;BME280;57063;51.406;-2.402;2023-07-02T03:30:06;100141.97;;;9.90;100.00
48882;BME280;57063;51.406;-2.402;2023-07-02T03:32:31;100145.28;;;9.92;100.00
48882;BME280;57063;51.406;-2.402;2023-07-02T03:34:57;100149.97;;;9.85;100.00
48882;BME280;57063;51.406;-2.402;2023-07-02T03:37:22;100146.31;;;9.89;100.00
48882;BME280;57063;51.406;-2.402;2023-07-02T03:39:47;100148.25;;;9.85;100.00
48882;BME280;57063;51.406;-2.402;2023-07-02T03:42:13;100161.13;;;9.85;100.00
48882;BME280;57063;51.406;-2.402;2023-07-02T03:44:38;100148.53;;;10.10;100.00
48882;BME280;57063;51.406;-2.402;2023-07-02T03:47:04;100148.06;;;10.03;100.00
48882;BME280;57063;51.406;-2.402;2023-07-02T03:49:30;100148.06;;;10.03;100.00
48882;BME280;57063;51.406;-2.402;2023-07-02T03:51:55;100146.03;;;9.94;100.00
48882;BME280;57063;51.406;-2.402;2023-07-02T03:54:21;100145.47;;;9.89;100.00
48882;BME280;57063;51.406;-2.402;2023-07-02T03:56:46;100151.66;;;9.86;100.00
48882;BME280;57063;51.406;-2.402;2023-07-02T03:59:11;100151.38;;;9.91;100.00
48882;BME280;57063;51.406;-2.402;2023-07-02T04:01:37;100158.94;;;9.94;100.00
48882;BME280;57063;51.406;-2.402;2023-07-02T04:04:02;100164.81;;;9.96;100.00
48882;BME280;57063;51.406;-2.402;2023-07-02T04:06:28;100163.91;;;9.97;100.00
48882;BME280;57063;51.406;-2.402;2023-07-02T04:08:53;100168.31;;;10.09;100.00
48882;BME280;57063;51.406;-2.402;2023-07-02T04:11:18;100170.34;;;10.18;100.00
48882;BME280;57063;51.406;-2.402;2023-07-02T04:13:44;100172.09;;;10.18;100.00
48882;BME280;57063;51.406;-2.402;2023-07-02T04:16:09;100171.09;;;10.20;100.00
48882;BME280;57063;51.406;-2.402;2023-07-02T04:18:35;100172.03;;;10.34;100.00
48882;BME280;57063;51.406;-2.402;2023-07-02T04:21:02;100163.09;;;10.54;100.00
48882;BME280;57063;51.406;-2.402;2023-07-02T04:23:27;100162.06;;;10.56;100.00
48882;BME280;57063;51.406;-2.402;2023-07-02T04:25:53;100170.91;;;10.52;100.00
48882;BME280;57063;51.406;-2.402;2023-07-02T04:28:18;100165.56;;;10.55;100.00
48882;BME280;57063;51.406;-2.402;2023-07-02T04:30:44;100175.69;;;10.58;100.00
48882;BME280;57063;51.406;-2.402;2023-07-02T04:33:09;100174.69;;;10.61;100.00
48882;BME280;57063;51.406;-2.402;2023-07-02T04:35:39;100174.50;;;10.64;100.00
48882;BME280;57063;51.406;-2.402;2023-07-02T04:38:04;100179.75;;;10.62;100.00
48882;BME280;57063;51.406;-2.402;2023-07-02T04:40:30;100184.72;;;10.65;100.00
48882;BME280;57063;51.406;-2.402;2023-07-02T04:42:55;100181.84;;;10.70;100.00
48882;BME280;57063;51.406;-2.402;2023-07-02T04:45:24;100180.66;;;10.76;100.00
48882;BME280;57063;51.406;-2.402;2023-07-02T04:47:50;100181.19;;;10.81;100.00
48882;BME280;57063;51.406;-2.402;2023-07-02T04:50:17;100176.91;;;10.94;100.00
48882;BME280;57063;51.406;-2.402;2023-07-02T04:52:42;100181.28;;;11.06;100.00
48882;BME280;57063;51.406;-2.402;2023-07-02T04:55:08;100180.72;;;11.16;100.00
48882;BME280;57063;51.406;-2.402;2023-07-02T04:57:33;100176.38;;;11.16;100.00
48882;BME280;57063;51.406;-2.402;2023-07-02T04:59:59;100171.84;;;11.20;100.00
48882;BME280;57063;51.406;-2.402;2023-07-02T05:02:24;100176.00;;;11.22;100.00
48882;BME280;57063;51.406;-2.402;2023-07-02T05:04:50;100181.78;;;11.26;100.00
48882;BME280;57063;51.406;-2.402;2023-07-02T05:07:18;100182.81;;;11.23;100.00
48882;BME280;57063;51.406;-2.402;2023-07-02T05:09:43;100184.03;;;11.18;100.00
48882;BME280;57063;51.406;-2.402;2023-07-02T05:12:09;100175.63;;;11.14;100.00
48882;BME280;57063;51.406;-2.402;2023-07-02T05:14:34;100187.72;;;11.13;100.00
48882;BME280;57063;51.406;-2.402;2023-07-02T05:17:00;100187.72;;;11.13;100.00
48882;BME280;57063;51.406;-2.402;2023-07-02T05:19:25;100176.16;;;11.19;100.00
48882;BME280;57063;51.406;-2.402;2023-07-02T05:21:51;100185.69;;;11.19;100.00
48882;BME280;57063;51.406;-2.402;2023-07-02T05:24:16;100185.91;;;11.28;100.00
48882;BME280;57063;51.406;-2.402;2023-07-02T05:26:41;100186.03;;;11.27;100.00
48882;BME280;57063;51.406;-2.402;2023-07-02T05:29:07;100185.63;;;11.33;100.00
48882;BME280;57063;51.406;-2.402;2023-07-02T05:31:32;100189.75;;;11.35;100.00
48882;BME280;57063;51.406;-2.402;2023-07-02T05:33:59;100191.97;;;11.42;100.00
48882;BME280;57063;51.406;-2.402;2023-07-02T05:36:24;100194.25;;;11.46;100.00
48882;BME280;57063;51.406;-2.402;2023-07-02T05:38:50;100200.13;;;11.48;100.00
48882;BME280;57063;51.406;-2.402;2023-07-02T05:41:19;100198.19;;;11.52;100.00
48882;BME280;57063;51.406;-2.402;2023-07-02T05:43:45;100201.50;;;11.54;100.00
48882;BME280;57063;51.406;-2.402;2023-07-02T05:46:10;100197.75;;;11.58;100.00
48882;BME280;57063;51.406;-2.402;2023-07-02T05:48:37;100191.38;;;11.64;100.00
48882;BME280;57063;51.406;-2.402;2023-07-02T05:51:03;100197.59;;;11.74;100.00
48882;BME280;57063;51.406;-2.402;2023-07-02T05:53:28;100194.41;;;11.83;100.00
48882;BME280;57063;51.406;-2.402;2023-07-02T05:55:53;100200.97;;;12.02;100.00
48882;BME280;57063;51.406;-2.402;2023-07-02T05:58:19;100206.56;;;12.08;100.00
48882;BME280;57063;51.406;-2.402;2023-07-02T06:00:44;100204.16;;;12.18;100.00
48882;BME280;57063;51.406;-2.402;2023-07-02T06:03:15;100214.63;;;12.29;100.00
48882;BME280;57063;51.406;-2.402;2023-07-02T06:05:45;100211.19;;;12.41;100.00
48882;BME280;57063;51.406;-2.402;2023-07-02T06:08:11;100213.44;;;12.59;100.00
48882;BME280;57063;51.406;-2.402;2023-07-02T06:10:36;100219.22;;;12.75;100.00
48882;BME280;57063;51.406;-2.402;2023-07-02T06:13:01;100208.00;;;13.12;100.00
48882;BME280;57063;51.406;-2.402;2023-07-02T06:15:27;100213.41;;;16.21;81.60
48882;BME280;57063;51.406;-2.402;2023-07-02T06:17:52;100219.50;;;18.55;66.10
48882;BME280;57063;51.406;-2.402;2023-07-02T06:20:17;100220.22;;;19.56;59.68
48882;BME280;57063;51.406;-2.402;2023-07-02T06:22:43;100234.25;;;20.51;55.50
48882;BME280;57063;51.406;-2.402;2023-07-02T06:25:08;100227.44;;;21.50;52.64
48882;BME280;57063;51.406;-2.402;2023-07-02T06:27:33;100230.84;;;21.92;50.83
48882;BME280;57063;51.406;-2.402;2023-07-02T06:29:59;100239.31;;;22.35;50.40
48882;BME280;57063;51.406;-2.402;2023-07-02T06:32:24;100248.88;;;22.75;49.06
48882;BME280;57063;51.406;-2.402;2023-07-02T06:34:50;100241.75;;;23.38;47.37
48882;BME280;57063;51.406;-2.402;2023-07-02T06:37:15;100234.53;;;23.78;45.82
48882;BME280;57063;51.406;-2.402;2023-07-02T06:39:40;100240.03;;;24.66;44.50
48882;BME280;57063;51.406;-2.402;2023-07-02T06:42:06;100235.13;;;23.42;45.78
48882;BME280;57063;51.406;-2.402;2023-07-02T06:44:31;100230.06;;;21.34;51.62
48882;BME280;57063;51.406;-2.402;2023-07-02T06:46:56;100240.84;;;22.29;49.28
48882;BME280;57063;51.406;-2.402;2023-07-02T06:49:22;100232.34;;;19.39;55.04
48882;BME280;57063;51.406;-2.402;2023-07-02T06:51:48;100240.59;;;18.71;59.04
48882;BME280;57063;51.406;-2.402;2023-07-02T06:54:13;100250.50;;;17.64;61.43
48882;BME280;57063;51.406;-2.402;2023-07-02T06:56:38;100256.94;;;17.21;61.57
48882;BME280;57063;51.406;-2.402;2023-07-02T06:59:04;100246.75;;;16.67;63.76
48882;BME280;57063;51.406;-2.402;2023-07-02T07:01:29;100246.09;;;16.65;63.65
48882;BME280;57063;51.406;-2.402;2023-07-02T07:03:55;100251.63;;;16.82;63.83
48882;BME280;57063;51.406;-2.402;2023-07-02T07:06:20;100251.31;;;17.35;62.69
48882;BME280;57063;51.406;-2.402;2023-07-02T07:08:46;100245.56;;;18.00;60.65
48882;BME280;57063;51.406;-2.402;2023-07-02T07:11:12;100244.47;;;17.73;61.89
48882;BME280;57063;51.406;-2.402;2023-07-02T07:13:37;100243.28;;;18.24;58.81
48882;BME280;57063;51.406;-2.402;2023-07-02T07:16:03;100248.22;;;18.27;58.12
48882;BME280;57063;51.406;-2.402;2023-07-02T07:18:28;100246.31;;;18.20;58.28
48882;BME280;57063;51.406;-2.402;2023-07-02T07:20:54;100252.38;;;19.49;53.37
48882;BME280;57063;51.406;-2.402;2023-07-02T07:23:20;100251.78;;;20.93;49.48
48882;BME280;57063;51.406;-2.402;2023-07-02T07:25:46;100258.22;;;21.15;48.79
48882;BME280;57063;51.406;-2.402;2023-07-02T07:28:11;100268.34;;;20.86;48.65
48882;BME280;57063;51.406;-2.402;2023-07-02T07:30:41;100263.16;;;18.72;53.31
48882;BME280;57063;51.406;-2.402;2023-07-02T07:33:06;100263.00;;;20.35;50.42
48882;BME280;57063;51.406;-2.402;2023-07-02T07:35:32;100271.22;;;21.17;49.03
48882;BME280;57063;51.406;-2.402;2023-07-02T07:37:57;100269.31;;;21.76;46.78
48882;BME280;57063;51.406;-2.402;2023-07-02T07:40:23;100258.59;;;22.02;46.25
48882;BME280;57063;51.406;-2.402;2023-07-02T07:42:48;100265.91;;;23.19;43.48
48882;BME280;57063;51.406;-2.402;2023-07-02T07:45:14;100266.34;;;23.54;41.67
48882;BME280;57063;51.406;-2.402;2023-07-02T07:47:39;100268.03;;;24.22;40.33
48882;BME280;57063;51.406;-2.402;2023-07-02T07:50:06;100263.34;;;23.57;40.78
48882;BME280;57063;51.406;-2.402;2023-07-02T07:52:40;100261.03;;;24.29;40.65
48882;BME280;57063;51.406;-2.402;2023-07-02T07:55:06;100260.84;;;24.75;37.88
48882;BME280;57063;51.406;-2.402;2023-07-02T07:57:34;100268.19;;;24.06;38.92
48882;BME280;57063;51.406;-2.402;2023-07-02T08:00:06;100264.59;;;24.66;38.51
48882;BME280;57063;51.406;-2.402;2023-07-02T08:02:38;100271.66;;;24.81;39.28
48882;BME280;57063;51.406;-2.402;2023-07-02T08:05:04;100281.69;;;24.70;38.61
48882;BME280;57063;51.406;-2.402;2023-07-02T08:07:32;100276.03;;;25.25;38.11
48882;BME280;57063;51.406;-2.402;2023-07-02T08:10:00;100260.47;;;24.78;37.67
48882;BME280;57063;51.406;-2.402;2023-07-02T08:12:27;100264.88;;;24.56;37.51
48882;BME280;57063;51.406;-2.402;2023-07-02T08:14:55;100267.78;;;24.98;36.73
48882;BME280;57063;51.406;-2.402;2023-07-02T08:17:20;100268.28;;;25.45;36.51
48882;BME280;57063;51.406;-2.402;2023-07-02T08:19:45;100266.53;;;25.80;36.69
48882;BME280;57063;51.406;-2.402;2023-07-02T08:22:11;100268.44;;;24.49;38.13
48882;BME280;57063;51.406;-2.402;2023-07-02T08:24:37;100266.31;;;24.74;38.07
48882;BME280;57063;51.406;-2.402;2023-07-02T08:27:02;100269.28;;;24.11;36.92
48882;BME280;57063;51.406;-2.402;2023-07-02T08:29:29;100259.16;;;22.54;39.57
48882;BME280;57063;51.406;-2.402;2023-07-02T08:31:55;100257.56;;;23.15;40.17
48882;BME280;57063;51.406;-2.402;2023-07-02T08:34:21;100252.88;;;23.02;39.55
48882;BME280;57063;51.406;-2.402;2023-07-02T08:36:47;100257.13;;;22.25;40.34
48882;BME280;57063;51.406;-2.402;2023-07-02T08:39:12;100249.28;;;22.56;40.33
48882;BME280;57063;51.406;-2.402;2023-07-02T08:41:47;100259.59;;;20.77;41.55
48882;BME280;57063;51.406;-2.402;2023-07-02T08:44:14;100251.84;;;20.33;43.46
48882;BME280;57063;51.406;-2.402;2023-07-02T08:46:41;100248.50;;;20.49;44.16
48882;BME280;57063;51.406;-2.402;2023-07-02T08:49:10;100254.31;;;20.61;43.33
48882;BME280;57063;51.406;-2.402;2023-07-02T08:51:36;100245.19;;;20.73;42.04
48882;BME280;57063;51.406;-2.402;2023-07-02T08:54:02;100250.44;;;20.73;41.59
48882;BME280;57063;51.406;-2.402;2023-07-02T08:56:28;100254.00;;;20.38;42.57
48882;BME280;57063;51.406;-2.402;2023-07-02T08:58:54;100251.03;;;20.33;42.19
48882;BME280;57063;51.406;-2.402;2023-07-02T09:01:19;100261.38;;;20.34;43.71
48882;BME280;57063;51.406;-2.402;2023-07-02T09:03:45;100261.75;;;20.47;43.77
48882;BME280;57063;51.406;-2.402;2023-07-02T09:06:11;100259.22;;;20.29;45.21
48882;BME280;57063;51.406;-2.402;2023-07-02T09:08:38;100258.44;;;20.45;45.19
48882;BME280;57063;51.406;-2.402;2023-07-02T09:11:10;100257.16;;;20.15;47.06
48882;BME280;57063;51.406;-2.402;2023-07-02T09:13:43;100259.25;;;19.67;47.62
48882;BME280;57063;51.406;-2.402;2023-07-02T09:16:22;100253.13;;;19.05;48.64
48882;BME280;57063;51.406;-2.402;2023-07-02T09:19:04;100263.50;;;18.59;48.63
48882;BME280;57063;51.406;-2.402;2023-07-02T09:21:43;100256.16;;;19.00;47.93
48882;BME280;57063;51.406;-2.402;2023-07-02T09:24:20;100258.75;;;18.83;49.45
48882;BME280;57063;51.406;-2.402;2023-07-02T09:26:52;100255.25;;;18.92;50.32
48882;BME280;57063;51.406;-2.402;2023-07-02T09:31:52;100248.50;;;18.89;48.77
48882;BME280;57063;51.406;-2.402;2023-07-02T09:34:17;100257.41;;;19.24;49.16
48882;BME280;57063;51.406;-2.402;2023-07-02T09:36:43;100250.03;;;19.81;47.25
48882;BME280;57063;51.406;-2.402;2023-07-02T09:39:18;100245.25;;;19.41;47.66
48882;BME280;57063;51.406;-2.402;2023-07-02T09:41:44;100250.81;;;19.56;49.06
48882;BME280;57063;51.406;-2.402;2023-07-02T09:44:11;100244.72;;;19.55;48.92
48882;BME280;57063;51.406;-2.402;2023-07-02T09:46:41;100247.06;;;19.40;47.25
48882;BME280;57063;51.406;-2.402;2023-07-02T09:49:14;100255.31;;;18.45;46.71
48882;BME280;57063;51.406;-2.402;2023-07-02T09:51:41;100259.09;;;18.60;47.44
48882;BME280;57063;51.406;-2.402;2023-07-02T09:54:07;100252.00;;;18.70;46.89
48882;BME280;57063;51.406;-2.402;2023-07-02T09:56:32;100255.09;;;18.93;47.07
48882;BME280;57063;51.406;-2.402;2023-07-02T09:58:58;100254.16;;;19.48;47.35
48882;BME280;57063;51.406;-2.402;2023-07-02T10:01:23;100254.78;;;20.04;46.55
48882;BME280;57063;51.406;-2.402;2023-07-02T10:03:49;100250.88;;;20.08;46.20
48882;BME280;57063;51.406;-2.402;2023-07-02T10:06:14;100249.91;;;20.43;45.86
48882;BME280;57063;51.406;-2.402;2023-07-02T10:08:40;100256.63;;;19.85;47.37
48882;BME280;57063;51.406;-2.402;2023-07-02T10:11:10;100247.38;;;19.37;48.65
48882;BME280;57063;51.406;-2.402;2023-07-02T10:13:35;100255.44;;;19.08;48.91
48882;BME280;57063;51.406;-2.402;2023-07-02T10:16:04;100252.50;;;19.11;48.51
48882;BME280;57063;51.406;-2.402;2023-07-02T10:18:30;100248.00;;;18.86;48.92
48882;BME280;57063;51.406;-2.402;2023-07-02T10:20:56;100253.84;;;18.60;49.61
48882;BME280;57063;51.406;-2.402;2023-07-02T10:23:34;100253.06;;;18.87;50.35
48882;BME280;57063;51.406;-2.402;2023-07-02T10:26:14;100253.31;;;18.94;49.01
48882;BME280;57063;51.406;-2.402;2023-07-02T10:28:40;100250.44;;;18.87;48.27
48882;BME280;57063;51.406;-2.402;2023-07-02T10:31:20;100249.69;;;18.77;48.27
48882;BME280;57063;51.406;-2.402;2023-07-02T10:33:47;100267.56;;;18.81;48.01
48882;BME280;57063;51.406;-2.402;2023-07-02T10:36:23;100273.75;;;19.08;49.50
48882;BME280;57063;51.406;-2.402;2023-07-02T10:39:15;100256.81;;;18.75;47.13
48882;BME280;57063;51.406;-2.402;2023-07-02T10:41:43;100246.94;;;18.78;47.99
48882;BME280;57063;51.406;-2.402;2023-07-02T10:44:09;100245.94;;;19.07;48.34
48882;BME280;57063;51.406;-2.402;2023-07-02T10:46:51;100255.50;;;19.52;47.69
48882;BME280;57063;51.406;-2.402;2023-07-02T10:49:17;100259.84;;;19.08;47.58
48882;BME280;57063;51.406;-2.402;2023-07-02T10:51:43;100259.84;;;19.25;47.18
48882;BME280;57063;51.406;-2.402;2023-07-02T10:54:09;100258.78;;;19.18;47.86
48882;BME280;57063;51.406;-2.402;2023-07-02T10:56:35;100259.69;;;19.09;47.05
48882;BME280;57063;51.406;-2.402;2023-07-02T10:59:00;100258.91;;;18.81;47.29
48882;BME280;57063;51.406;-2.402;2023-07-02T11:01:28;100256.84;;;18.65;46.83
48882;BME280;57063;51.406;-2.402;2023-07-02T11:04:01;100259.16;;;19.23;46.93
48882;BME280;57063;51.406;-2.402;2023-07-02T11:06:28;100257.00;;;19.55;45.75
48882;BME280;57063;51.406;-2.402;2023-07-02T11:08:54;100257.91;;;19.28;45.42
48882;BME280;57063;51.406;-2.402;2023-07-02T11:11:23;100256.94;;;19.46;44.51
48882;BME280;57063;51.406;-2.402;2023-07-02T11:13:50;100252.13;;;19.60;44.06
48882;BME280;57063;51.406;-2.402;2023-07-02T11:16:23;100248.13;;;19.65;43.30
48882;BME280;57063;51.406;-2.402;2023-07-02T11:19:06;100248.50;;;19.71;42.96
48882;BME280;57063;51.406;-2.402;2023-07-02T11:21:34;100247.19;;;20.87;41.33
48882;BME280;57063;51.406;-2.402;2023-07-02T11:24:04;100248.03;;;21.04;41.40
48882;BME280;57063;51.406;-2.402;2023-07-02T11:26:40;100232.75;;;20.49;40.27
48882;BME280;57063;51.406;-2.402;2023-07-02T11:29:12;100230.19;;;19.71;41.83
48882;BME280;57063;51.406;-2.402;2023-07-02T11:31:43;100240.59;;;19.88;43.07
48882;BME280;57063;51.406;-2.402;2023-07-02T11:34:13;100229.81;;;20.18;43.52
48882;BME280;57063;51.406;-2.402;2023-07-02T11:36:39;100240.56;;;19.80;43.07
48882;BME280;57063;51.406;-2.402;2023-07-02T11:39:04;100241.78;;;20.20;42.22
48882;BME280;57063;51.406;-2.402;2023-07-02T11:41:40;100245.88;;;19.71;42.61
48882;BME280;57063;51.406;-2.402;2023-07-02T11:44:06;100243.47;;;19.59;41.77
48882;BME280;57063;51.406;-2.402;2023-07-02T11:46:32;100242.50;;;20.04;41.04
48882;BME280;57063;51.406;-2.402;2023-07-02T11:49:00;100236.97;;;20.68;39.54
48882;BME280;57063;51.406;-2.402;2023-07-02T11:51:25;100238.91;;;20.31;40.18
48882;BME280;57063;51.406;-2.402;2023-07-02T11:53:50;100230.63;;;20.18;40.02
48882;BME280;57063;51.406;-2.402;2023-07-02T11:56:18;100241.59;;;19.87;41.02
48882;BME280;57063;51.406;-2.402;2023-07-02T11:58:44;100239.00;;;19.70;41.93
48882;BME280;57063;51.406;-2.402;2023-07-02T12:01:09;100236.81;;;19.83;41.80
48882;BME280;57063;51.406;-2.402;2023-07-02T12:03:35;100224.47;;;20.01;41.49
48882;BME280;57063;51.406;-2.402;2023-07-02T12:06:00;100225.97;;;20.38;41.72
48882;BME280;57063;51.406;-2.402;2023-07-02T12:08:26;100238.72;;;20.33;41.50
48882;BME280;57063;51.406;-2.402;2023-07-02T12:10:51;100231.66;;;20.25;41.25
48882;BME280;57063;51.406;-2.402;2023-07-02T12:13:17;100222.09;;;20.50;40.69
48882;BME280;57063;51.406;-2.402;2023-07-02T12:15:42;100230.44;;;20.80;40.52
48882;BME280;57063;51.406;-2.402;2023-07-02T12:18:09;100225.25;;;20.54;39.20
48882;BME280;57063;51.406;-2.402;2023-07-02T12:20:34;100216.94;;;20.67;40.19
48882;BME280;57063;51.406;-2.402;2023-07-02T12:23:00;100234.84;;;20.45;40.06
48882;BME280;57063;51.406;-2.402;2023-07-02T12:25:25;100225.34;;;20.79;40.07
48882;BME280;57063;51.406;-2.402;2023-07-02T12:27:51;100220.84;;;21.30;38.73
48882;BME280;57063;51.406;-2.402;2023-07-02T12:30:16;100215.44;;;21.31;38.31
48882;BME280;57063;51.406;-2.402;2023-07-02T12:32:43;100226.22;;;21.04;39.10
48882;BME280;57063;51.406;-2.402;2023-07-02T12:35:09;100233.19;;;21.54;38.14
48882;BME280;57063;51.406;-2.402;2023-07-02T12:37:35;100230.09;;;21.58;37.67